createdAt,value
2022-10-18T00:00:58.933Z,965.43
2022-10-18T00:03:58.317Z,965.44
2022-10-18T00:06:58.525Z,965.52
2022-10-18T00:09:59.116Z,965.46
2022-10-18T00:12:59.532Z,965.48
2022-10-18T00:15:58.622Z,965.51
2022-10-18T00:18:59.158Z,965.57
2022-10-18T00:21:59.484Z,965.48
2022-10-18T00:24:58.494Z,965.48
2022-10-18T00:27:58.425Z,965.52
2022-10-18T00:30:58.364Z,965.49
2022-10-18T00:33:58.506Z,965.43
2022-10-18T00:36:58.331Z,965.46
2022-10-18T00:39:59.486Z,965.39
2022-10-18T00:42:58.159Z,965.43
2022-10-18T00:45:59.276Z,965.41
2022-10-18T00:48:58.371Z,965.45
2022-10-18T00:52:05.141Z,965.43
2022-10-18T00:54:58.237Z,965.36
2022-10-18T00:57:58.939Z,965.45
2022-10-18T01:00:58.909Z,965.42
2022-10-18T01:03:58.770Z,965.39
2022-10-18T01:06:58.744Z,965.41
2022-10-18T01:09:59.680Z,965.32
2022-10-18T01:12:58.839Z,965.28
2022-10-18T01:15:59.057Z,965.28
2022-10-18T01:18:58.738Z,965.25
2022-10-18T01:21:58.943Z,965.28
2022-10-18T01:24:58.745Z,965.25
2022-10-18T01:27:58.871Z,965.32
2022-10-18T01:30:59.077Z,965.3
2022-10-18T01:33:59.462Z,965.35
2022-10-18T01:36:58.676Z,965.21
2022-10-18T01:39:59.276Z,965.3
2022-10-18T01:42:58.304Z,965.3
2022-10-18T01:45:59.466Z,965.29
2022-10-18T01:48:59.472Z,965.35
2022-10-18T01:51:58.394Z,965.41
2022-10-18T01:54:59.504Z,965.39
2022-10-18T01:57:58.209Z,965.45
2022-10-18T02:00:59.295Z,965.43
2022-10-18T02:03:59.269Z,965.36
2022-10-18T02:06:59.043Z,965.34
2022-10-18T02:09:58.755Z,965.38
2022-10-18T02:12:58.718Z,965.44
2022-10-18T02:15:58.215Z,965.36
2022-10-18T02:18:58.821Z,965.29
2022-10-18T02:21:58.576Z,965.22
2022-10-18T02:24:58.767Z,965.16
2022-10-18T02:27:58.777Z,964.99
2022-10-18T02:30:58.674Z,965.12
2022-10-18T02:33:58.615Z,965.18
2022-10-18T02:36:59.256Z,965.08
2022-10-18T02:39:58.746Z,965.15
2022-10-18T02:42:59.237Z,965.15
2022-10-18T02:45:58.977Z,965.08
2022-10-18T02:48:59.446Z,965.0
2022-10-18T02:51:58.458Z,965.08
2022-10-18T02:54:59.318Z,965.05
2022-10-18T02:57:59.247Z,965.02
2022-10-18T03:00:59.704Z,964.99
2022-10-18T03:03:58.695Z,964.93
2022-10-18T03:06:58.394Z,965.06
2022-10-18T03:09:59.577Z,965.06
2022-10-18T03:12:58.801Z,964.96
2022-10-18T03:15:59.167Z,964.96
2022-10-18T03:18:59.192Z,964.97
2022-10-18T03:21:58.958Z,964.99
2022-10-18T03:24:59.004Z,964.94
2022-10-18T03:27:58.935Z,964.97
2022-10-18T03:30:59.064Z,964.89
2022-10-18T03:33:59.434Z,964.84
2022-10-18T03:37:02.083Z,964.92
2022-10-18T03:39:58.772Z,964.99
2022-10-18T03:42:59.023Z,965.09
2022-10-18T03:45:58.589Z,965.0
2022-10-18T03:48:58.703Z,965.06
2022-10-18T03:51:58.737Z,965.06
2022-10-18T03:54:58.573Z,965.06
2022-10-18T03:57:58.579Z,965.04
2022-10-18T04:00:59.559Z,965.09
2022-10-18T04:03:58.966Z,964.97
2022-10-18T04:06:59.517Z,964.97
2022-10-18T04:09:58.747Z,964.99
2022-10-18T04:12:58.837Z,965.03
2022-10-18T04:15:58.668Z,964.99
2022-10-18T04:18:59.142Z,964.99
2022-10-18T04:21:58.619Z,964.97
2022-10-18T04:24:59.217Z,964.99
2022-10-18T04:27:59.287Z,964.97
2022-10-18T04:30:59.173Z,964.99
2022-10-18T04:33:59.269Z,965.14
2022-10-18T04:36:58.942Z,965.03
2022-10-18T04:39:58.909Z,965.09
2022-10-18T04:42:58.209Z,965.06
2022-10-18T04:45:59.855Z,965.06
2022-10-18T04:48:58.925Z,964.92
2022-10-18T04:51:59.683Z,965.06
2022-10-18T04:54:59.790Z,965.05
2022-10-18T04:57:59.406Z,965.07
2022-10-18T05:00:59.673Z,965.04
2022-10-18T05:03:59.564Z,965.06
2022-10-18T05:06:59.625Z,965.07
2022-10-18T05:09:59.968Z,965.13
2022-10-18T05:12:58.765Z,965.2
2022-10-18T05:15:58.840Z,965.12
2022-10-18T05:18:59.273Z,965.1
2022-10-18T05:21:59.653Z,965.12
2022-10-18T05:24:59.374Z,965.2
2022-10-18T05:28:00.931Z,965.13
2022-10-18T05:30:58.724Z,965.12
2022-10-18T05:33:58.704Z,965.05
2022-10-18T05:36:59.166Z,965.05
2022-10-18T05:39:58.998Z,965.05
2022-10-18T05:42:59.153Z,965.02
2022-10-18T05:45:59.848Z,965.07
2022-10-18T05:48:59.629Z,965.07
2022-10-18T05:51:59.289Z,964.99
2022-10-18T05:54:59.512Z,965.14
2022-10-18T05:57:58.928Z,965.08
2022-10-18T06:00:59.659Z,965.08
2022-10-18T06:03:59.476Z,965.12
2022-10-18T06:06:58.888Z,965.11
2022-10-18T06:09:59.388Z,965.08
2022-10-18T06:12:59.816Z,965.15
2022-10-18T06:15:58.877Z,965.17
2022-10-18T06:18:59.625Z,965.08
2022-10-18T06:21:59.098Z,965.14
2022-10-18T06:24:58.964Z,965.25
2022-10-18T06:27:59.405Z,965.31
2022-10-18T06:30:59.798Z,965.18
2022-10-18T06:33:59.193Z,965.28
2022-10-18T06:36:59.258Z,965.34
2022-10-18T06:39:58.872Z,965.32
2022-10-18T06:43:00.663Z,965.26
2022-10-18T06:45:59.444Z,965.32
2022-10-18T06:48:58.555Z,965.25
2022-10-18T06:51:58.506Z,965.32
2022-10-18T06:54:58.299Z,965.44
2022-10-18T06:57:59.531Z,965.39
2022-10-18T07:00:59.076Z,965.41
2022-10-18T07:03:59.005Z,965.32
2022-10-18T07:06:58.585Z,965.39
2022-10-18T07:09:58.909Z,965.43
2022-10-18T07:13:13.747Z,965.41
2022-10-18T07:15:59.879Z,965.49
2022-10-18T07:18:58.645Z,965.51
2022-10-18T07:21:59.280Z,965.51
2022-10-18T07:24:59.633Z,965.55
2022-10-18T07:27:59.239Z,965.59
2022-10-18T07:31:02.393Z,965.56
2022-10-18T07:33:59.110Z,965.73
2022-10-18T07:36:59.574Z,965.59
2022-10-18T07:39:58.505Z,965.55
2022-10-18T07:43:01.638Z,965.59
2022-10-18T07:45:59.219Z,965.61
2022-10-18T07:48:58.346Z,965.65
2022-10-18T07:51:58.927Z,965.61
2022-10-18T07:54:58.856Z,965.56
2022-10-18T07:57:59.284Z,965.61
2022-10-18T08:00:59.230Z,965.59
2022-10-18T08:04:03.236Z,965.59
2022-10-18T08:06:58.915Z,965.53
2022-10-18T08:09:59.213Z,965.61
2022-10-18T08:12:58.583Z,965.62
2022-10-18T08:15:59.230Z,965.53
2022-10-18T08:18:58.533Z,965.56
2022-10-18T08:21:59.379Z,965.52
2022-10-18T08:24:58.898Z,965.53
2022-10-18T08:27:59.019Z,965.54
2022-10-18T08:30:58.898Z,965.63
2022-10-18T08:33:58.831Z,965.6
2022-10-18T08:36:58.800Z,965.65
2022-10-18T08:39:59.348Z,965.66
2022-10-18T08:42:58.634Z,965.66
2022-10-18T08:45:58.715Z,965.65
2022-10-18T08:48:58.774Z,965.73
2022-10-18T08:51:58.864Z,965.66
2022-10-18T08:54:58.819Z,965.66
2022-10-18T08:57:58.818Z,965.65
2022-10-18T09:00:59.679Z,965.66
2022-10-18T09:03:58.959Z,965.61
2022-10-18T09:06:59.148Z,965.66
2022-10-18T09:09:59.544Z,965.63
2022-10-18T09:12:58.797Z,965.68
2022-10-18T09:15:58.715Z,965.74
2022-10-18T09:18:58.848Z,965.74
2022-10-18T09:21:59.054Z,965.76
2022-10-18T09:24:59.090Z,965.84
2022-10-18T09:27:59.045Z,965.73
2022-10-18T09:31:00.131Z,965.77
2022-10-18T09:33:59.187Z,965.78
2022-10-18T09:36:59.728Z,965.78
2022-10-18T09:39:59.174Z,965.75
2022-10-18T09:42:59.203Z,965.85
2022-10-18T09:45:59.689Z,965.84
2022-10-18T09:48:58.621Z,965.79
2022-10-18T09:51:58.575Z,965.81
2022-10-18T09:54:59.247Z,965.76
2022-10-18T09:57:58.623Z,965.72
2022-10-18T10:00:58.838Z,965.78
2022-10-18T10:03:58.605Z,965.63
2022-10-18T10:06:59.270Z,965.72
2022-10-18T10:09:59.135Z,965.76
2022-10-18T10:12:58.403Z,965.66
2022-10-18T10:15:58.501Z,965.8
2022-10-18T10:18:59.298Z,965.7
2022-10-18T10:21:58.538Z,965.76
2022-10-18T10:24:59.441Z,965.73
2022-10-18T10:27:59.424Z,965.68
2022-10-18T10:30:59.119Z,965.64
2022-10-18T10:34:00.258Z,965.65
2022-10-18T10:36:58.458Z,965.71
2022-10-18T10:40:17.392Z,965.71
2022-10-18T10:43:08.837Z,965.82
2022-10-18T10:45:59.311Z,965.69
2022-10-18T10:49:21.064Z,965.72
2022-10-18T10:52:08.957Z,965.71
2022-10-18T10:55:06.225Z,965.65
2022-10-18T10:57:59.025Z,965.79
2022-10-18T11:00:59.659Z,965.79
2022-10-18T11:04:17.780Z,965.82
2022-10-18T11:06:59.078Z,965.74
2022-10-18T11:09:59.484Z,965.71
2022-10-18T11:12:58.680Z,965.74
2022-10-18T11:15:59.336Z,965.7
2022-10-18T11:18:58.351Z,965.77
2022-10-18T11:21:59.478Z,965.61
2022-10-18T11:24:59.290Z,965.6
2022-10-18T11:27:59.205Z,965.6
2022-10-18T11:30:59.899Z,965.67
2022-10-18T11:34:08.615Z,965.61
2022-10-18T11:37:22.889Z,965.62
2022-10-18T11:39:59.396Z,965.5
2022-10-18T11:42:59.067Z,965.65
2022-10-18T11:45:58.528Z,965.6
2022-10-18T11:48:59.245Z,965.58
2022-10-18T11:52:07.891Z,965.65
2022-10-18T11:54:58.974Z,965.52
2022-10-18T11:57:59.301Z,965.61
2022-10-18T12:00:59.534Z,965.54
2022-10-18T12:03:58.484Z,965.52
2022-10-18T12:06:59.020Z,965.48
2022-10-18T12:09:58.909Z,965.49
2022-10-18T12:12:59.320Z,965.48
2022-10-18T12:15:58.727Z,965.52
2022-10-18T12:18:58.961Z,965.5
2022-10-18T12:21:59.584Z,965.55
2022-10-18T12:24:58.680Z,965.45
2022-10-18T12:30:59.653Z,965.39
2022-10-18T12:33:58.980Z,965.33
2022-10-18T12:36:58.664Z,965.46
2022-10-18T12:40:09.706Z,965.4
2022-10-18T12:42:58.369Z,965.4
2022-10-18T12:45:59.814Z,965.38
2022-10-18T12:48:58.606Z,965.41
2022-10-18T12:51:58.722Z,965.38
2022-10-18T12:54:59.570Z,965.41
2022-10-18T12:57:59.173Z,965.36
2022-10-18T13:00:59.509Z,965.47
2022-10-18T13:03:58.884Z,965.39
2022-10-18T13:06:59.019Z,965.43
2022-10-18T13:09:59.457Z,965.35
2022-10-18T13:12:58.772Z,965.35
2022-10-18T13:15:58.939Z,965.32
2022-10-18T13:18:58.508Z,965.3
2022-10-18T13:21:58.707Z,965.3
2022-10-18T13:24:58.679Z,965.33
2022-10-18T13:27:59.293Z,965.32
2022-10-18T13:30:59.082Z,965.34
2022-10-18T13:33:58.772Z,965.34
2022-10-18T13:36:58.920Z,965.2
2022-10-18T13:39:59.252Z,965.26
2022-10-18T13:42:58.414Z,965.32
2022-10-18T13:45:58.822Z,965.33
2022-10-18T13:48:58.451Z,965.34
2022-10-18T13:51:59.059Z,965.27
2022-10-18T13:54:58.766Z,965.41
2022-10-18T13:57:58.688Z,965.37
2022-10-18T14:00:58.900Z,965.41
2022-10-18T14:03:59.033Z,965.43
2022-10-18T14:07:02.039Z,965.46
2022-10-18T14:10:03.412Z,965.4
2022-10-18T14:12:59.791Z,965.42
2022-10-18T14:15:59.300Z,965.42
2022-10-18T14:18:59.527Z,965.5
2022-10-18T14:21:58.915Z,965.49
2022-10-18T14:24:59.071Z,965.52
2022-10-18T14:27:58.949Z,965.51
2022-10-18T14:31:00.004Z,965.48
2022-10-18T14:33:59.217Z,965.52
2022-10-18T14:36:59.462Z,965.6
2022-10-18T14:39:58.656Z,965.6
2022-10-18T14:43:00.160Z,965.69
2022-10-18T14:45:59.799Z,965.67
2022-10-18T14:48:58.609Z,965.6
2022-10-18T14:51:59.595Z,965.66
2022-10-18T14:54:59.720Z,965.65
2022-10-18T14:57:59.456Z,965.63
2022-10-18T15:00:59.030Z,965.65
2022-10-18T15:03:59.155Z,965.66
2022-10-18T15:06:59.593Z,965.63
2022-10-18T15:09:59.307Z,965.58
2022-10-18T15:13:09.266Z,965.62
2022-10-18T15:15:58.945Z,965.66
2022-10-18T15:18:58.565Z,965.62
2022-10-18T15:22:13.563Z,965.61
2022-10-18T15:24:59.319Z,965.57
2022-10-18T15:27:59.361Z,965.6
2022-10-18T15:30:58.953Z,965.59
2022-10-18T15:33:58.545Z,965.53
2022-10-18T15:36:58.957Z,965.59
2022-10-18T15:39:59.834Z,965.59
2022-10-18T15:42:59.240Z,965.53
2022-10-18T15:46:01.842Z,965.57
2022-10-18T15:48:59.740Z,965.64
2022-10-18T15:51:59.650Z,965.54
2022-10-18T15:54:59.574Z,965.54
2022-10-18T15:57:59.585Z,965.49
2022-10-18T16:01:00.471Z,965.54
2022-10-18T16:03:59.252Z,965.62
2022-10-18T16:06:59.078Z,965.75
2022-10-18T16:09:59.645Z,965.75
2022-10-18T16:12:58.557Z,965.68
2022-10-18T16:15:59.692Z,965.75
2022-10-18T16:18:59.569Z,965.82
2022-10-18T16:22:05.239Z,965.85
2022-10-18T16:24:58.951Z,965.75
2022-10-18T16:27:59.438Z,965.92
2022-10-18T16:30:59.851Z,965.9
2022-10-18T16:33:59.181Z,966.03
2022-10-18T16:36:59.285Z,965.95
2022-10-18T16:39:59.067Z,965.98
2022-10-18T16:42:59.408Z,965.97
2022-10-18T16:45:59.186Z,965.98
2022-10-18T16:48:59.448Z,966.04
2022-10-18T16:51:59.131Z,966.08
2022-10-18T16:54:59.504Z,966.08
2022-10-18T16:57:59.010Z,966.1
2022-10-18T17:00:58.777Z,966.16
2022-10-18T17:03:59.719Z,966.2
2022-10-18T17:06:59.260Z,966.23
2022-10-18T17:09:58.694Z,966.32
2022-10-18T17:12:59.185Z,966.39
2022-10-18T17:15:59.462Z,966.39
2022-10-18T17:18:59.530Z,966.35
2022-10-18T17:22:02.541Z,966.36
2022-10-18T17:24:59.388Z,966.38
2022-10-18T17:27:59.333Z,966.32
2022-10-18T17:31:00.126Z,966.39
2022-10-18T17:33:59.133Z,966.38
2022-10-18T17:37:00.390Z,966.36
2022-10-18T17:39:58.296Z,966.46
2022-10-18T17:42:58.886Z,966.39
2022-10-18T17:45:59.542Z,966.55
2022-10-18T17:48:58.350Z,966.49
2022-10-18T17:52:03.301Z,966.52
2022-10-18T17:54:59.221Z,966.52
2022-10-18T17:57:58.976Z,966.49
2022-10-18T18:01:25.919Z,966.54
2022-10-18T18:03:59.450Z,966.51
2022-10-18T18:06:58.778Z,966.58
2022-10-18T18:09:59.105Z,966.63
2022-10-18T18:12:59.289Z,966.49
2022-10-18T18:15:59.367Z,966.51
2022-10-18T18:18:58.743Z,966.5
2022-10-18T18:21:58.868Z,966.5
2022-10-18T18:24:58.758Z,966.57
2022-10-18T18:28:01.459Z,966.46
2022-10-18T18:30:59.450Z,966.52
2022-10-18T18:33:58.902Z,966.43
2022-10-18T18:36:59.441Z,966.4
2022-10-18T18:39:59.708Z,966.46
2022-10-18T18:43:07.125Z,966.53
2022-10-18T18:45:58.413Z,966.5
2022-10-18T18:48:59.151Z,966.53
2022-10-18T18:51:59.501Z,966.39
2022-10-18T18:54:59.121Z,966.53
2022-10-18T18:57:58.792Z,966.42
2022-10-18T19:00:59.066Z,966.43
2022-10-18T19:03:59.095Z,966.43
2022-10-18T19:06:58.626Z,966.42
2022-10-18T19:09:59.687Z,966.4
2022-10-18T19:12:58.947Z,966.37
2022-10-18T19:15:59.001Z,966.38
2022-10-18T19:18:58.763Z,966.42
2022-10-18T19:21:59.000Z,966.38
2022-10-18T19:24:58.840Z,966.35
2022-10-18T19:27:59.360Z,966.32
2022-10-18T19:30:58.817Z,966.39
2022-10-18T19:33:59.224Z,966.41
2022-10-18T19:36:58.819Z,966.46
2022-10-18T19:39:59.641Z,966.33
2022-10-18T19:42:58.836Z,966.32
2022-10-18T19:45:58.676Z,966.35
2022-10-18T19:48:59.517Z,966.36
2022-10-18T19:51:59.091Z,966.44
2022-10-18T19:54:58.940Z,966.36
2022-10-18T19:57:58.567Z,966.48
2022-10-18T20:00:59.032Z,966.55
2022-10-18T20:03:59.130Z,966.52
2022-10-18T20:06:59.721Z,966.55
2022-10-18T20:09:59.222Z,966.55
2022-10-18T20:12:59.727Z,966.39
2022-10-18T20:15:59.470Z,966.41
2022-10-18T20:18:59.161Z,966.45
2022-10-18T20:21:59.136Z,966.49
2022-10-18T20:24:58.520Z,966.38
2022-10-18T20:27:59.216Z,966.46
2022-10-18T20:30:58.967Z,966.38
2022-10-18T20:33:59.104Z,966.45
2022-10-18T20:36:58.800Z,966.51
2022-10-18T20:39:59.757Z,966.48
2022-10-18T20:43:03.607Z,966.39
2022-10-18T20:45:59.668Z,966.45
2022-10-18T20:48:59.185Z,966.44
2022-10-18T20:51:59.306Z,966.42
2022-10-18T20:54:59.240Z,966.38
2022-10-18T20:57:58.252Z,966.48
2022-10-18T21:00:58.750Z,966.45
2022-10-18T21:03:59.051Z,966.4
2022-10-18T21:06:59.133Z,966.44
2022-10-18T21:09:59.303Z,966.38
2022-10-18T21:12:59.291Z,966.44
2022-10-18T21:15:58.891Z,966.4
2022-10-18T21:18:58.271Z,966.35
2022-10-18T21:21:58.632Z,966.27
2022-10-18T21:24:59.173Z,966.3
2022-10-18T21:27:59.118Z,966.25
2022-10-18T21:30:59.646Z,966.34
2022-10-18T21:33:59.370Z,966.28
2022-10-18T21:36:58.930Z,966.22
2022-10-18T21:39:59.932Z,966.18
2022-10-18T21:42:58.937Z,966.27
2022-10-18T21:45:58.938Z,966.21
2022-10-18T21:48:58.974Z,966.21
2022-10-18T21:51:59.340Z,966.14
2022-10-18T21:54:59.441Z,966.11
2022-10-18T21:57:58.655Z,966.05
2022-10-18T22:00:59.695Z,965.92
2022-10-18T22:03:59.506Z,965.97
2022-10-18T22:06:59.262Z,965.94
2022-10-18T22:09:59.387Z,965.98
2022-10-18T22:12:58.560Z,965.91
2022-10-18T22:15:59.055Z,965.95
2022-10-18T22:18:58.453Z,965.91
2022-10-18T22:21:59.287Z,966.05
2022-10-18T22:24:58.440Z,965.91
2022-10-18T22:27:58.799Z,965.9
2022-10-18T22:30:58.915Z,965.84
2022-10-18T22:33:58.371Z,965.84
2022-10-18T22:36:58.202Z,965.87
2022-10-18T22:39:59.098Z,965.92
2022-10-18T22:42:59.236Z,965.88
2022-10-18T22:45:59.276Z,965.84
2022-10-18T22:48:58.098Z,965.81
2022-10-18T22:51:58.921Z,965.75
2022-10-18T22:54:58.947Z,965.75
2022-10-18T22:57:58.892Z,965.6
2022-10-18T23:01:01.091Z,965.61
2022-10-18T23:03:59.030Z,965.64
2022-10-18T23:06:58.801Z,965.7
2022-10-18T23:09:58.622Z,965.71
2022-10-18T23:12:58.817Z,965.75
2022-10-18T23:16:04.120Z,965.64
2022-10-18T23:18:58.465Z,965.73
2022-10-18T23:21:59.241Z,965.73
2022-10-18T23:24:59.162Z,965.77
2022-10-18T23:27:58.732Z,965.78
2022-10-18T23:31:12.482Z,965.78
2022-10-18T23:33:58.695Z,965.84
2022-10-18T23:36:58.565Z,965.83
2022-10-18T23:39:59.340Z,965.77
2022-10-18T23:42:59.292Z,965.8
2022-10-18T23:45:59.112Z,965.8
2022-10-18T23:48:59.249Z,965.71
2022-10-18T23:51:59.337Z,965.74
2022-10-18T23:54:59.028Z,965.79
2022-10-18T23:57:59.090Z,965.79
